aviador You're here:

OIAM Decoded Metar

BANDAR MAHSHAHR in IRAN
Report Time2018-07-22 16:00:00
UTC Time2018-07-22 16:25:53
Flight Rules vfr VFR
Wind300° at 08 kt
W.Decomp.*RWY 31: 7.8 kt HW 1.8 kt LCW
W.Rank300° ranks 1
Current wind is below 300° avg. (10.4)
Visibility9999 m
Phenomena:N/A
Clouds:N/A
Expected CloudBase > 11,200 ft AGL from Temp-Dew spread
CeilingNone
Temp40°C (ISA +25)
Dew Point12°C (19% RH)
Heat Index39.1°C
AAT37.7°C
QNH0995 hPa
Density Alt3,619 ft
Elevation13 ft
Report Wrong Elevation
Raw Report
METAR OIAM 221600Z 30008KT CAVOK 40/12 Q0995=

Extra information for OIAM:More info

Metar Taf Metar & Taf Last 4 Metars F.Rules Stats Wind Profile Meteogram Temp Stats Airport Information Weather charts Add Link Nearby VenuesMetar ALERT Operation Metar Decoded Social comments